Carlyle, Illinois
Current Conditions -  °F | °C
As of 10:55 PM on Friday 21 Nov 2014 (Local Time) from KENL Reporting Station
Light Rain Light Rain  
Wind Chill: 32°   Ceiling: 6000
Heat Index: 38°   Visibility: 10mi
Dew Point: 30°   Wind: 8mph
Humidity: 73%   Direction: 150°SSE
Pressure: 30.26"   Gusts: NA
Location:  38.61°N, 89.37°W
Report Text: KENL 220455Z AUTO 15007KT 10SM -RA SCT049 OVC060 03/M01 A3026 RMK AO2 T00341011
Loading
Personal Weather Stations






























Interactive Weather Map New forecast layout! Learn more

10-Day Weather Forecast

Advertisements
Track Severe Weather on mobile